»·PEaware :: UAL550 KBOI-KPDX

UAL550 :: KBOI-KPDX

FLIGHT INFORMATION

Flight Status: Arrived
Operator:
United Airlines
More flights by this operator :: More flights under this callsign
Pilot: Brandon F. (14792)
Aircraft: Unknown
(A359)
More flights by this aircraft type
Origin: KBOI Boise Air Terminal/Gowen
United States
Destination: KPDX Portland Intl
United States
More flights between these airports :: More routes between these airports
Route: +BOI3 BOI V500 IMB HHOOD4
File this flight plan on PilotEdge
Remarks:
Altitude:
(Current/Filed)
32,000ft
Speed:
(Current/Filed)
500kts
Departed: 27-Feb-18 06:45 PM
Arrived: 27-Feb-18 07:37 PM
Distance/Time
Traveled:
298nm/0:52
Distance/Time
To Go:
Arrived

Flight Plot

Page will automatically refresh every two minutes.

Flight plan parsing failed; only flown route is shown


Map Options




Map Legend


Flown Route
Filed Route
Departure Airport
Arrival Airport
Navaid (VOR, NDB)
Fix

Horizontal Profiles

Position Reports

Time Latitude Longitude Heading Altitude Ground
Speed
27-Feb-18 18:12 43.568845 -116.221915 272 2884ft 0kts
27-Feb-18 18:13 43.568845 -116.221915 272 2884ft 0kts
27-Feb-18 18:14 43.568845 -116.221915 272 2884ft 0kts
27-Feb-18 18:15 43.568845 -116.221915 272 2884ft 0kts
27-Feb-18 18:16 43.568845 -116.221915 272 2884ft 0kts
27-Feb-18 18:17 43.568845 -116.221915 272 2884ft 0kts
27-Feb-18 18:18 43.568845 -116.221915 272 2884ft 0kts
27-Feb-18 18:19 43.568845 -116.221915 272 2884ft 0kts
27-Feb-18 18:20 43.568845 -116.221915 272 2885ft 0kts
27-Feb-18 18:21 43.568845 -116.221915 272 2885ft 0kts
27-Feb-18 18:22 43.568845 -116.221915 272 2885ft 0kts
27-Feb-18 18:23 43.568845 -116.221915 272 2885ft 0kts
27-Feb-18 18:24 43.568845 -116.221915 272 2885ft 0kts
27-Feb-18 18:25 43.568845 -116.221915 272 2885ft 0kts
27-Feb-18 18:26 43.568845 -116.221915 272 2885ft 0kts
27-Feb-18 18:27 43.568845 -116.221915 272 2885ft 0kts
27-Feb-18 18:28 43.568845 -116.221915 272 2885ft 0kts
27-Feb-18 18:29 43.568845 -116.221915 272 2885ft 0kts
27-Feb-18 18:30 43.568845 -116.221915 272 2885ft 0kts
27-Feb-18 18:31 43.568845 -116.221915 272 2885ft 0kts
27-Feb-18 18:32 43.568845 -116.221915 272 2885ft 0kts
27-Feb-18 18:33 43.568845 -116.221915 272 2885ft 0kts
27-Feb-18 18:34 43.568845 -116.221915 272 2885ft 0kts
27-Feb-18 18:35 43.568845 -116.221915 272 2885ft 0kts
27-Feb-18 18:36 43.568845 -116.221915 272 2885ft 0kts
27-Feb-18 18:37 43.568845 -116.221915 272 2885ft 0kts
27-Feb-18 18:38 43.568845 -116.221915 272 2885ft 0kts
27-Feb-18 18:39 43.568845 -116.221915 272 2885ft 0kts
27-Feb-18 18:40 43.568845 -116.221915 272 2885ft 0kts
27-Feb-18 18:41 43.568845 -116.221915 272 2885ft 0kts
27-Feb-18 18:42 43.568845 -116.221915 272 2885ft 0kts
27-Feb-18 18:43 43.568846 -116.221964 272 2885ft 0kts
27-Feb-18 18:44 43.568846 -116.221964 272 2885ft 0kts
27-Feb-18 18:45 43.568849 -116.222028 272 2885ft 0kts
27-Feb-18 18:46 43.568851 -116.222092 272 2885ft 0kts
27-Feb-18 18:47 43.565895 -116.220703 115 2885ft 23kts
27-Feb-18 18:48 43.563681 -116.213949 119 2885ft 15kts
27-Feb-18 18:49 43.561558 -116.207992 113 2885ft 18kts
27-Feb-18 18:50 43.559908 -116.203123 122 2885ft 0kts
27-Feb-18 18:51 43.559841 -116.202988 125 2885ft 8kts
27-Feb-18 18:52 43.560632 -116.208900 296 2885ft 93kts
27-Feb-18 18:53 43.581142 -116.277117 298 4902ft 251kts
27-Feb-18 18:54 43.611863 -116.372291 292 8972ft 285kts
27-Feb-18 18:55 43.643877 -116.477120 295 12209ft 318kts
27-Feb-18 18:56 43.685078 -116.591807 297 15420ft 349kts
27-Feb-18 18:57 43.724414 -116.717739 290 18623ft 368kts
27-Feb-18 18:58 43.765646 -116.849072 297 21833ft 378kts
27-Feb-18 18:59 43.810752 -116.980379 294 25034ft 380kts
27-Feb-18 19:00 43.853899 -117.113811 293 27918ft 385kts
27-Feb-18 19:01 43.897696 -117.249008 293 30609ft 388kts
27-Feb-18 19:02 43.942469 -117.389669 293 31987ft 425kts
27-Feb-18 19:03 43.993679 -117.551641 293 31990ft 490kts
27-Feb-18 19:04 44.049885 -117.730320 293 31989ft 509kts
27-Feb-18 19:05 44.106033 -117.910304 293 31989ft 509kts
27-Feb-18 19:06 44.161996 -118.091045 293 31989ft 509kts
27-Feb-18 19:07 44.218100 -118.271252 293 31989ft 509kts
27-Feb-18 19:08 44.273520 -118.452442 293 31989ft 509kts
27-Feb-18 19:09 44.328497 -118.633658 292 31989ft 509kts
27-Feb-18 19:10 44.383322 -118.815916 292 31989ft 509kts
27-Feb-18 19:11 44.437747 -118.998147 292 31989ft 509kts
27-Feb-18 19:12 44.492105 -119.180301 292 31989ft 509kts
27-Feb-18 19:13 44.546441 -119.363000 292 31989ft 509kts
27-Feb-18 19:14 44.600216 -119.545617 292 31989ft 509kts
27-Feb-18 19:15 44.661187 -119.724421 304 31987ft 509kts
27-Feb-18 19:16 44.753590 -119.874057 312 31989ft 509kts
27-Feb-18 19:17 44.848471 -120.021172 312 31989ft 509kts
27-Feb-18 19:18 44.943054 -120.168206 312 31988ft 505kts
27-Feb-18 19:19 45.029384 -120.302902 311 31191ft 447kts
27-Feb-18 19:20 45.110675 -120.431113 311 28692ft 431kts
27-Feb-18 19:21 45.183097 -120.562123 300 26194ft 418kts
27-Feb-18 19:22 45.237733 -120.703729 298 23703ft 405kts
27-Feb-18 19:23 45.290382 -120.841202 298 21210ft 392kts
27-Feb-18 19:24 45.341370 -120.974810 298 18709ft 379kts
27-Feb-18 19:25 45.389685 -121.101991 298 16997ft 357kts
27-Feb-18 19:27 45.439719 -121.258699 285 15255ft 336kts
27-Feb-18 19:28 45.464345 -121.384513 285 13085ft 321kts
27-Feb-18 19:29 45.488133 -121.505246 285 12863ft 302kts
27-Feb-18 19:30 45.510384 -121.618471 285 11365ft 294kts
27-Feb-18 19:31 45.529558 -121.729983 276 9870ft 287kts
27-Feb-18 19:32 45.533752 -121.840982 273 8255ft 269kts
27-Feb-18 19:33 45.537196 -121.939715 273 6706ft 237kts
27-Feb-18 19:34 45.541375 -122.031211 264 6694ft 231kts
27-Feb-18 19:35 45.511028 -122.103180 234 5908ft 210kts
27-Feb-18 19:36 45.480981 -122.164032 234 5695ft 173kts
27-Feb-18 19:37 45.476596 -122.231630 277 4708ft 191kts
27-Feb-18 19:38 45.483227 -122.306238 282 3707ft 170kts
27-Feb-18 19:39 45.503282 -122.360543 299 3286ft 151kts
27-Feb-18 19:40 45.523273 -122.411347 298 2508ft 150kts
27-Feb-18 19:41 45.542781 -122.461711 298 1737ft 143kts
27-Feb-18 19:42 45.561575 -122.510353 296 991ft 140kts
27-Feb-18 19:43 45.579055 -122.555116 298 281ft 125kts
27-Feb-18 19:44 45.589338 -122.581819 297 38ft 10kts
27-Feb-18 19:45 45.590274 -122.586537 266 38ft 0kts
27-Feb-18 19:46 45.590227 -122.588960 274 38ft 10kts
27-Feb-18 19:47 45.591546 -122.593227 276 38ft 2kts
27-Feb-18 19:48 45.591254 -122.594070 217 38ft 0kts
27-Feb-18 19:49 45.591254 -122.594070 217 38ft 0kts
27-Feb-18 19:50 45.591254 -122.594070 217 38ft 0kts
27-Feb-18 19:51 45.591254 -122.594070 217 38ft 0kts
27-Feb-18 19:52 45.591254 -122.594070 217 38ft 0kts
27-Feb-18 19:53 45.591254 -122.594070 217 38ft 0kts
27-Feb-18 19:54 45.591254 -122.594070 217 38ft 0kts
27-Feb-18 19:55 45.591254 -122.594070 217 38ft 0kts
27-Feb-18 19:56 45.591254 -122.594070 217 38ft 0kts

Navigation Log

Ident Type
Flight plan parsing failed, navigation log unavailable